Time;durP1;ratioP1;P1;durP2;ratioP2;P2;SDS_P1;SDS_P2;PMS_P1;PMS_P2;Temp;Humidity;BMP_temperature;BMP_pressure;BME280_temperature;BME280_humidity;BME280_pressure;Samples;Min_cycle;Max_cycle;Signal;HPM_P1;HPM_P2
2022/07/29 00:02:17;;;;;;;1.90;1.30;;;;;;;15.84;88.40;92655.59;5047882;28;20097;-74
2022/07/29 00:04:43;;;;;;;2.33;1.27;;;;;;;15.84;88.44;92659.00;5030567;28;20120;-74
2022/07/29 00:07:08;;;;;;;2.63;1.20;;;;;;;15.79;88.77;92648.63;5030395;28;20057;-74
2022/07/29 00:09:34;;;;;;;4.43;1.45;;;;;;;15.73;88.72;92653.28;5030438;28;20115;-74
2022/07/29 00:12:01;;;;;;;5.93;1.70;;;;;;;15.70;88.58;92651.25;5012878;28;20034;-74
2022/07/29 00:14:27;;;;;;;4.10;1.50;;;;;;;15.70;88.69;92650.47;5044236;28;20048;-75
2022/07/29 00:16:53;;;;;;;2.50;1.50;;;;;;;15.71;88.47;92649.41;5050288;28;20029;-75
2022/07/29 00:19:19;;;;;;;3.28;1.58;;;;;;;15.70;88.47;92639.91;5032466;28;20044;-75
2022/07/29 00:21:44;;;;;;;2.67;1.50;;;;;;;15.72;88.60;92632.50;5032376;28;20108;-74
2022/07/29 00:24:10;;;;;;;2.22;1.50;;;;;;;15.71;88.51;92626.41;5039258;28;20132;-74
2022/07/29 00:26:35;;;;;;;5.13;1.58;;;;;;;15.74;88.92;92625.03;5030222;28;20519;-74
2022/07/29 00:29:04;;;;;;;7.97;1.58;;;;;;;15.72;89.81;92637.78;4996314;28;20376;-74
2022/07/29 00:31:29;;;;;;;2.83;1.65;;;;;;;15.67;90.40;92629.97;5030264;28;20068;-75
2022/07/29 00:33:55;;;;;;;3.15;1.60;;;;;;;15.65;90.47;92635.59;5034531;28;20088;-74
2022/07/29 00:36:21;;;;;;;3.13;1.70;;;;;;;15.64;90.60;92630.59;5050001;28;20029;-74
2022/07/29 00:38:48;;;;;;;3.28;1.58;;;;;;;15.58;91.25;92628.13;5032340;28;20056;-74
2022/07/29 00:41:14;;;;;;;3.80;1.75;;;;;;;15.55;91.31;92634.03;5050227;28;20041;-74
2022/07/29 00:43:40;;;;;;;3.28;1.70;;;;;;;15.55;91.03;92634.03;5049407;28;20124;-73
2022/07/29 00:46:06;;;;;;;4.13;1.90;;;;;;;15.54;91.08;92645.69;5031196;28;20125;-73
2022/07/29 00:48:32;;;;;;;5.32;1.60;;;;;;;15.62;91.31;92634.31;5012427;28;20132;-73
2022/07/29 00:50:59;;;;;;;6.55;1.83;;;;;;;15.56;92.70;92645.38;5030077;28;20464;-73
2022/07/29 00:53:25;;;;;;;2.80;1.63;;;;;;;15.49;92.03;92640.56;5012360;28;20049;-73
2022/07/29 00:55:53;;;;;;;3.30;1.60;;;;;;;15.46;92.23;92641.19;4996768;28;20088;-74
2022/07/29 00:58:19;;;;;;;3.30;1.60;;;;;;;15.44;92.63;92648.63;5015922;28;20048;-74
2022/07/29 01:00:44;;;;;;;2.40;1.52;;;;;;;15.43;94.31;92644.44;5033621;28;20462;-73
2022/07/29 01:03:10;;;;;;;2.45;1.52;;;;;;;15.40;92.92;92640.56;5033594;28;20681;-73
2022/07/29 01:05:35;;;;;;;2.83;1.73;;;;;;;15.39;92.23;92640.88;5022017;28;20120;-73
2022/07/29 01:08:02;;;;;;;3.28;1.67;;;;;;;15.39;92.90;92635.59;5035590;28;20031;-73
2022/07/29 01:10:29;;;;;;;2.95;1.70;;;;;;;15.40;92.29;92634.50;5038754;28;20046;-73
2022/07/29 01:12:58;;;;;;;2.80;1.60;;;;;;;15.37;93.34;92635.13;5033622;28;20061;-73
2022/07/29 01:15:25;;;;;;;5.75;1.63;;;;;;;15.34;94.11;92641.03;5034912;28;20433;-73
2022/07/29 01:18:08;;;;;;;3.42;1.50;;;;;;;15.33;93.91;92642.91;5032999;28;20037;-73
2022/07/29 01:21:08;;;;;;;4.13;1.63;;;;;;;15.28;93.01;92637.78;5033447;28;20087;-73
2022/07/29 01:24:00;;;;;;;2.42;1.38;;;;;;;15.27;92.65;92622.28;5033344;28;20045;-73
2022/07/29 01:26:34;;;;;;;2.33;1.50;;;;;;;15.29;93.31;92630.63;5004562;28;20037;-73
2022/07/29 01:29:18;;;;;;;2.60;1.58;;;;;;;15.29;92.80;92628.78;5052852;28;20037;-73
2022/07/29 01:31:51;;;;;;;2.40;1.50;;;;;;;15.30;92.62;92632.19;5034978;28;20398;-73
2022/07/29 01:34:21;;;;;;;;;;;;;;;15.28;91.56;92632.50;5053488;28;20041;-74
2022/07/29 01:36:54;;;;;;;4.95;1.60;;;;;;;15.27;92.12;92627.56;5027930;28;20290;-74
2022/07/29 01:39:23;;;;;;;;;;;;;;;15.29;92.29;92628.00;5033291;28;20033;-74
2022/07/29 01:42:27;;;;;;;3.65;1.50;;;;;;;15.28;91.56;92621.19;5032884;28;19924;-73
2022/07/29 01:45:09;;;;;;;2.80;1.55;;;;;;;15.28;91.03;92621.94;4995499;28;20045;-74
2022/07/29 01:47:42;;;;;;;3.60;1.60;;;;;;;15.28;90.64;92627.22;5034352;28;20025;-73
2022/07/29 01:50:12;;;;;;;3.70;1.60;;;;;;;15.31;90.48;92617.91;5032740;28;20037;-73
2022/07/29 01:52:49;;;;;;;4.13;1.52;;;;;;;15.30;90.34;92616.38;5032581;28;20525;-74
2022/07/29 01:55:18;;;;;;;2.05;1.33;;;;;;;15.29;91.37;92617.44;5014738;28;20048;-73
2022/07/29 01:57:47;;;;;;;3.53;1.60;;;;;;;15.26;91.55;92618.84;5038595;28;20033;-73
2022/07/29 02:00:13;;;;;;;4.45;1.63;;;;;;;15.25;92.71;92619.94;5052605;28;20033;-74
2022/07/29 02:02:43;;;;;;;2.85;1.60;;;;;;;15.24;90.82;92622.88;5052567;28;20513;-74
2022/07/29 02:05:12;;;;;;;2.50;1.50;;;;;;;15.23;91.21;92616.06;5034549;28;20041;-74
2022/07/29 02:07:41;;;;;;;3.05;1.50;;;;;;;15.17;93.91;92613.56;5047748;28;20112;-73
2022/07/29 02:10:09;;;;;;;5.82;1.70;;;;;;;15.14;94.21;92614.19;5032286;28;20403;-73
2022/07/29 02:12:37;;;;;;;2.75;1.60;;;;;;;15.13;93.61;92617.94;4998353;28;20515;-73
2022/07/29 02:15:05;;;;;;;3.55;1.80;;;;;;;15.11;92.28;92614.06;5030692;28;20039;-73
2022/07/29 02:17:41;;;;;;;3.83;1.80;;;;;;;15.08;91.26;92618.06;5018000;28;20052;-74
2022/07/29 02:20:08;;;;;;;3.65;1.55;;;;;;;15.07;91.12;92615.78;5032179;28;20033;-73
2022/07/29 02:22:37;;;;;;;4.00;1.60;;;;;;;15.11;91.41;92617.47;5031978;28;20109;-73
2022/07/29 02:25:04;;;;;;;3.03;1.70;;;;;;;15.08;90.97;92615.44;5031866;28;20073;-73
2022/07/29 02:27:33;;;;;;;6.43;1.60;;;;;;;15.10;91.82;92607.22;5032209;28;20131;-73
2022/07/29 02:30:01;;;;;;;3.47;1.50;;;;;;;15.08;90.77;92594.34;5046897;28;20033;-73
2022/07/29 02:32:28;;;;;;;3.28;1.60;;;;;;;15.09;90.08;92592.50;5033991;28;20044;-73
2022/07/29 02:34:55;;;;;;;2.38;1.50;;;;;;;15.11;89.50;92599.00;5051573;28;20048;-74
2022/07/29 02:37:21;;;;;;;2.42;1.50;;;;;;;15.14;89.20;92608.94;5033936;28;20471;-73
2022/07/29 02:39:48;;;;;;;3.42;1.60;;;;;;;15.17;89.03;92603.03;5040841;28;20033;-73
2022/07/29 02:42:17;;;;;;;2.58;1.75;;;;;;;15.24;90.70;92607.06;5031688;28;20095;-74
2022/07/29 02:44:43;;;;;;;2.60;1.60;;;;;;;15.26;90.47;92616.22;5031575;28;20025;-74
2022/07/29 02:47:18;;;;;;;2.67;1.75;;;;;;;15.29;90.32;92615.59;5031491;28;20047;-73
2022/07/29 02:50:03;;;;;;;2.20;1.40;;;;;;;15.32;90.79;92614.19;5004182;28;20033;-73
2022/07/29 02:52:33;;;;;;;2.50;1.60;;;;;;;15.33;92.16;92619.19;5033230;28;20063;-74
2022/07/29 02:55:22;;;;;;;3.10;1.75;;;;;;;15.34;91.33;92618.06;5051282;28;20053;-73
2022/07/29 02:58:00;;;;;;;5.10;1.80;;;;;;;15.36;90.46;92607.22;5051452;28;20021;-73
2022/07/29 03:00:33;;;;;;;3.47;1.80;;;;;;;15.38;91.05;92607.69;5032902;28;20036;-74
2022/07/29 03:03:03;;;;;;;3.55;1.90;;;;;;;15.39;91.35;92610.00;5051106;28;20499;-73
2022/07/29 03:05:30;;;;;;;3.00;1.80;;;;;;;15.40;91.45;92608.91;5051449;28;20128;-74
2022/07/29 03:08:01;;;;;;;2.78;1.77;;;;;;;15.42;92.69;92616.50;5033188;28;20036;-73
2022/07/29 03:10:28;;;;;;;3.13;1.60;;;;;;;15.43;92.25;92610.16;5048597;28;20091;-73
2022/07/29 03:12:56;;;;;;;4.13;1.85;;;;;;;15.44;92.73;92611.69;5013410;28;20128;-73
2022/07/29 03:15:22;;;;;;;4.22;1.80;;;;;;;15.44;93.97;92616.97;4997129;28;20044;-74
2022/07/29 03:17:49;;;;;;;3.72;1.83;;;;;;;15.45;93.97;92615.13;5013501;28;20049;-72
2022/07/29 03:20:15;;;;;;;3.70;1.80;;;;;;;15.49;94.20;92616.81;4996615;28;20415;-73
2022/07/29 03:22:46;;;;;;;2.97;1.60;;;;;;;15.49;93.25;92616.81;5032147;28;20452;-74
2022/07/29 03:25:17;;;;;;;4.60;2.05;;;;;;;15.50;92.52;92621.00;5030805;28;20123;-73
2022/07/29 03:27:43;;;;;;;9.07;2.00;;;;;;;15.51;92.14;92617.25;5030991;28;20490;-73
2022/07/29 03:30:11;;;;;;;2.58;1.60;;;;;;;15.52;92.55;92615.41;5019962;28;20323;-73
2022/07/29 03:32:37;;;;;;;5.55;2.47;;;;;;;15.52;92.57;92616.19;5048078;28;20143;-73
2022/07/29 03:35:04;;;;;;;3.22;1.85;;;;;;;15.51;92.00;92612.00;5043905;28;20090;-74
2022/07/29 03:37:30;;;;;;;5.22;1.70;;;;;;;15.50;91.60;92615.72;5033573;28;20031;-74
2022/07/29 03:39:57;;;;;;;3.15;1.70;;;;;;;15.53;91.53;92611.69;5044668;28;20399;-74
2022/07/29 03:42:32;;;;;;;2.95;1.70;;;;;;;15.51;90.80;92606.72;5046342;28;20522;-74
2022/07/29 03:45:07;;;;;;;3.58;1.70;;;;;;;15.50;89.91;92602.53;5048702;28;20051;-74
2022/07/29 03:47:37;;;;;;;5.20;1.98;;;;;;;15.49;91.14;92601.00;5043320;28;20028;-74
2022/07/29 03:50:07;;;;;;;3.80;1.60;;;;;;;15.48;90.96;92599.44;5048452;28;20111;-75
2022/07/29 03:52:33;;;;;;;3.17;1.88;;;;;;;15.46;90.02;92592.94;5048965;28;20414;-75
2022/07/29 03:54:59;;;;;;;3.45;1.70;;;;;;;15.45;89.95;92591.38;5028515;28;20506;-74
2022/07/29 03:57:27;;;;;;;3.67;1.80;;;;;;;15.44;90.30;92595.88;5049585;28;20040;-75
2022/07/29 03:59:54;;;;;;;4.45;1.77;;;;;;;15.41;90.61;92597.28;5043322;28;20040;-74
2022/07/29 04:02:21;;;;;;;3.60;1.90;;;;;;;15.41;90.12;92596.50;5030376;28;20110;-75
2022/07/29 04:04:46;;;;;;;5.50;1.75;;;;;;;15.39;90.82;92601.31;5029448;28;20428;-75
2022/07/29 04:07:14;;;;;;;3.20;1.70;;;;;;;15.38;90.18;92599.78;5044153;28;20049;-75
2022/07/29 04:09:40;;;;;;;2.83;1.80;;;;;;;15.38;89.59;92603.19;5047550;28;20035;-74
2022/07/29 04:12:06;;;;;;;2.67;1.60;;;;;;;15.37;89.11;92611.41;5045985;28;20077;-75
2022/07/29 04:14:32;;;;;;;4.88;1.70;;;;;;;15.36;88.24;92617.78;5044758;28;20416;-74
2022/07/29 04:16:59;;;;;;;3.97;1.80;;;;;;;15.38;87.83;92607.69;5045006;28;20490;-75
2022/07/29 04:19:25;;;;;;;5.80;1.70;;;;;;;15.36;86.94;92615.13;5032739;28;20468;-75
2022/07/29 04:21:51;;;;;;;3.05;1.70;;;;;;;15.39;86.38;92609.22;5032686;28;20033;-75
2022/07/29 04:24:16;;;;;;;3.10;1.63;;;;;;;15.39;85.93;92609.22;5050249;28;20087;-74
2022/07/29 04:26:43;;;;;;;3.33;1.58;;;;;;;15.40;85.39;92610.75;5030404;28;20041;-74
2022/07/29 04:29:08;;;;;;;2.55;1.60;;;;;;;15.41;85.06;92607.06;5030554;28;20025;-74
2022/07/29 04:31:34;;;;;;;2.25;1.30;;;;;;;15.44;85.37;92619.59;4998727;28;20124;-74
2022/07/29 04:33:59;;;;;;;3.28;1.70;;;;;;;15.48;85.17;92617.91;5000198;28;20116;-75
2022/07/29 04:36:25;;;;;;;3.28;1.60;;;;;;;15.50;84.90;92625.50;5031100;28;20086;-76
2022/07/29 04:38:51;;;;;;;3.17;1.70;;;;;;;15.51;84.88;92617.25;5036232;28;20029;-75
2022/07/29 04:41:16;;;;;;;5.07;1.88;;;;;;;15.54;84.82;92621.94;5036254;28;20033;-75
2022/07/29 04:43:42;;;;;;;6.03;1.70;;;;;;;15.60;85.50;92620.69;5054034;28;20068;-75
2022/07/29 04:46:07;;;;;;;2.90;1.58;;;;;;;15.67;87.58;92624.69;5026741;28;20059;-75
2022/07/29 04:48:33;;;;;;;2.95;1.70;;;;;;;15.71;87.44;92620.38;5000003;28;20096;-74
2022/07/29 04:50:59;;;;;;;2.95;1.80;;;;;;;15.71;87.47;92617.72;5016276;28;20048;-75
2022/07/29 04:53:25;;;;;;;3.50;1.63;;;;;;;15.77;86.64;92614.59;5016258;28;20041;-75
2022/07/29 04:55:50;;;;;;;5.82;1.80;;;;;;;15.79;86.96;92607.16;5035498;28;20045;-75
2022/07/29 04:58:16;;;;;;;4.40;1.80;;;;;;;15.82;86.82;92611.03;5016500;28;20045;-75
2022/07/29 05:00:42;;;;;;;4.60;1.60;;;;;;;15.84;86.76;92608.09;5033798;28;20052;-75
2022/07/29 05:03:07;;;;;;;4.50;1.80;;;;;;;15.86;87.59;92614.59;5034268;28;20121;-75
2022/07/29 05:05:33;;;;;;;4.57;1.80;;;;;;;15.94;87.32;92613.81;5033567;28;20029;-75
2022/07/29 05:07:58;;;;;;;3.63;1.95;;;;;;;16.00;86.55;92612.53;5049929;28;20021;-75
2022/07/29 05:10:24;;;;;;;6.03;1.88;;;;;;;16.06;87.08;92621.06;5019291;28;20040;-75
2022/07/29 05:12:50;;;;;;;5.25;1.90;;;;;;;16.12;87.16;92616.34;5053577;28;20044;-76
2022/07/29 05:15:17;;;;;;;3.00;1.77;;;;;;;16.18;86.39;92617.75;5035658;28;20021;-75
2022/07/29 05:17:43;;;;;;;3.72;1.80;;;;;;;16.29;85.54;92616.28;5043126;28;20120;-75
2022/07/29 05:20:09;;;;;;;6.03;1.73;;;;;;;16.39;85.37;92618.59;5033420;28;20406;-75
2022/07/29 05:22:35;;;;;;;2.72;1.60;;;;;;;16.49;84.53;92617.44;5033656;28;20526;-75
2022/07/29 05:25:02;;;;;;;3.13;1.60;;;;;;;16.57;83.82;92614.00;5015700;28;20049;-75
2022/07/29 05:27:27;;;;;;;2.92;1.70;;;;;;;16.66;83.57;92613.91;4999794;28;20068;-75
2022/07/29 05:29:53;;;;;;;2.47;1.60;;;;;;;16.77;82.57;92624.91;5033171;28;20025;-75
2022/07/29 05:32:19;;;;;;;2.05;1.40;;;;;;;16.85;78.11;92630.16;5015561;28;20045;-75
2022/07/29 05:34:44;;;;;;;4.20;1.60;;;;;;;17.02;77.98;92631.13;5015297;28;20420;-75
2022/07/29 05:37:10;;;;;;;3.67;1.77;;;;;;;17.05;80.31;92627.88;5015457;28;20479;-75
2022/07/29 05:39:35;;;;;;;5.93;1.63;;;;;;;17.15;80.09;92637.28;5047502;28;20395;-75
2022/07/29 05:42:01;;;;;;;3.00;1.67;;;;;;;17.21;78.72;92642.03;5034899;28;20040;-76
2022/07/29 05:44:26;;;;;;;1.80;1.30;;;;;;;17.32;77.36;92646.97;5035071;28;20031;-75
2022/07/29 05:46:52;;;;;;;3.13;1.60;;;;;;;17.49;77.70;92646.78;5034789;28;20060;-75
2022/07/29 05:49:17;;;;;;;6.45;1.77;;;;;;;17.70;74.61;92657.38;5052339;28;20514;-75
2022/07/29 05:51:44;;;;;;;3.85;1.60;;;;;;;17.97;73.53;92657.91;5052729;28;20403;-75
2022/07/29 05:54:10;;;;;;;4.53;1.55;;;;;;;18.15;73.76;92658.50;5052680;28;20056;-75
2022/07/29 05:56:37;;;;;;;2.67;1.50;;;;;;;18.16;71.06;92658.19;5052578;28;20037;-75
2022/07/29 05:59:03;;;;;;;7.15;1.63;;;;;;;18.26;73.32;92659.63;5013485;28;20053;-75
2022/07/29 06:01:28;;;;;;;3.15;1.60;;;;;;;18.39;72.76;92660.41;5032677;28;20041;-74
2022/07/29 06:03:54;;;;;;;3.20;1.60;;;;;;;18.55;74.07;92655.22;5015334;28;20087;-75
2022/07/29 06:06:19;;;;;;;3.50;1.60;;;;;;;19.19;73.09;92667.81;5014784;28;20091;-75
2022/07/29 06:08:45;;;;;;;3.20;1.65;;;;;;;19.83;68.58;92662.78;5032677;28;20487;-76
2022/07/29 06:11:11;;;;;;;4.32;1.50;;;;;;;20.52;66.27;92666.81;5032714;28;20271;-75
2022/07/29 06:13:36;;;;;;;3.47;1.75;;;;;;;20.11;66.77;92666.19;5044225;28;20040;-76
2022/07/29 06:16:02;;;;;;;5.90;1.50;;;;;;;19.83;68.03;92670.75;5034395;28;20045;-75
2022/07/29 06:18:28;;;;;;;2.72;1.50;;;;;;;19.61;69.96;92672.81;5017977;28;20033;-75
2022/07/29 06:20:54;;;;;;;2.30;1.45;;;;;;;19.47;68.77;92675.03;5014371;28;20033;-75
2022/07/29 06:23:20;;;;;;;3.78;1.50;;;;;;;19.31;68.70;92681.03;5032376;28;20087;-75
2022/07/29 06:25:46;;;;;;;5.25;1.75;;;;;;;19.09;70.35;92678.88;5034261;28;20325;-75
2022/07/29 06:28:12;;;;;;;3.60;1.58;;;;;;;19.04;70.88;92685.19;5051990;28;20025;-75
2022/07/29 06:30:38;;;;;;;3.60;1.60;;;;;;;19.01;72.41;92685.09;5052010;28;20036;-75
2022/07/29 06:33:05;;;;;;;4.13;1.50;;;;;;;19.08;70.76;92687.97;5048156;28;20652;-75
2022/07/29 06:35:32;;;;;;;2.72;1.55;;;;;;;19.16;73.05;92689.69;5033934;28;20025;-75
2022/07/29 06:37:58;;;;;;;2.88;1.50;;;;;;;19.23;71.69;92681.97;5033816;28;20136;-75
2022/07/29 06:43:07;;;;;;;6.60;1.65;;;;;;;19.30;71.36;92687.47;5051715;28;20033;-75
2022/07/29 06:45:34;;;;;;;7.78;1.55;;;;;;;19.54;70.83;92677.88;5034088;28;20110;-75
2022/07/29 06:47:59;;;;;;;2.75;1.50;;;;;;;19.57;71.02;92682.53;5034059;28;20041;-75
2022/07/29 06:50:25;;;;;;;4.15;1.60;;;;;;;19.46;72.21;92682.25;5017750;28;20131;-75
2022/07/29 06:52:51;;;;;;;3.58;1.75;;;;;;;19.56;72.03;92687.06;5043173;28;20060;-76
2022/07/29 06:55:19;;;;;;;5.13;1.60;;;;;;;19.47;74.36;92691.72;5013120;28;20038;-75
2022/07/29 06:57:46;;;;;;;4.30;1.55;;;;;;;19.54;72.68;92683.19;5013983;28;20100;-75
2022/07/29 07:00:12;;;;;;;4.80;1.63;;;;;;;19.72;70.15;92687.19;4997314;28;20038;-75
2022/07/29 07:02:38;;;;;;;3.70;1.70;;;;;;;19.74;70.84;92679.63;4998458;28;20057;-74
2022/07/29 07:05:05;;;;;;;3.95;1.60;;;;;;;19.78;70.49;92689.59;5013681;28;20045;-75
2022/07/29 07:07:31;;;;;;;6.50;1.85;;;;;;;19.90;70.89;92679.66;5014112;28;20080;-75
2022/07/29 07:09:57;;;;;;;6.93;1.88;;;;;;;20.21;70.42;92680.84;5031568;28;20045;-75
2022/07/29 07:12:22;;;;;;;2.65;1.40;;;;;;;20.28;69.11;92675.69;5013773;28;20033;-75
2022/07/29 07:14:48;;;;;;;5.50;1.80;;;;;;;20.47;70.37;92683.03;5029287;28;20517;-75
2022/07/29 07:17:13;;;;;;;8.30;1.90;;;;;;;20.59;70.08;92672.31;5033396;28;20041;-75
2022/07/29 07:19:39;;;;;;;10.38;1.90;;;;;;;20.69;68.61;92675.56;5033519;28;20032;-75
2022/07/29 07:22:05;;;;;;;8.48;1.73;;;;;;;20.66;70.14;92684.25;5033387;28;20033;-75
2022/07/29 07:24:30;;;;;;;3.92;2.00;;;;;;;20.63;72.71;92675.06;5050977;28;20033;-75
2022/07/29 07:26:56;;;;;;;4.07;1.80;;;;;;;20.55;72.02;92674.09;5033363;28;20040;-75
2022/07/29 07:29:21;;;;;;;3.92;1.90;;;;;;;20.41;74.22;92668.44;5033071;28;20029;-75
2022/07/29 07:31:47;;;;;;;4.55;1.75;;;;;;;20.31;74.76;92666.28;5016790;28;20041;-75
2022/07/29 07:34:12;;;;;;;3.00;1.80;;;;;;;20.64;76.34;92676.59;5051094;28;20080;-75
2022/07/29 07:36:38;;;;;;;3.58;1.70;;;;;;;21.16;73.62;92670.19;5050990;28;20120;-75
2022/07/29 07:39:05;;;;;;;3.85;1.70;;;;;;;21.65;71.93;92662.84;5033010;28;20075;-75
2022/07/29 07:41:30;;;;;;;3.47;1.90;;;;;;;22.22;66.76;92664.72;5018804;28;20040;-75
2022/07/29 07:43:56;;;;;;;3.33;1.88;;;;;;;22.58;65.98;92662.63;5033222;28;20032;-74
2022/07/29 07:46:21;;;;;;;6.00;2.15;;;;;;;22.75;67.17;92657.94;5050483;28;20045;-75
2022/07/29 07:48:47;;;;;;;5.10;1.98;;;;;;;22.69;67.52;92667.38;5050806;28;20020;-75
2022/07/29 07:51:13;;;;;;;3.35;1.85;;;;;;;22.62;67.88;92655.47;5051445;28;20041;-75
2022/07/29 07:53:38;;;;;;;3.65;1.95;;;;;;;22.26;70.16;92658.66;5050625;28;20057;-75
2022/07/29 07:56:06;;;;;;;5.20;2.08;;;;;;;22.17;67.89;92656.19;5032404;28;20403;-75
2022/07/29 07:58:32;;;;;;;4.55;2.00;;;;;;;22.23;67.82;92657.47;5032824;28;20041;-75
2022/07/29 08:00:57;;;;;;;3.67;1.70;;;;;;;22.37;68.10;92651.63;5016494;28;20037;-75
2022/07/29 08:03:23;;;;;;;4.45;1.80;;;;;;;22.53;66.11;92652.25;5050601;28;20387;-75
2022/07/29 08:05:50;;;;;;;3.60;1.65;;;;;;;22.56;63.16;92650.78;5045953;28;20092;-75
2022/07/29 08:08:16;;;;;;;2.38;1.58;;;;;;;22.49;65.18;92658.66;5017009;28;20124;-75
2022/07/29 08:10:55;;;;;;;3.33;1.83;;;;;;;22.85;62.20;92658.13;5017126;28;20136;-75
2022/07/29 08:13:25;;;;;;;3.05;1.70;;;;;;;22.72;60.28;92658.66;5019654;28;20037;-76
2022/07/29 08:16:11;;;;;;;3.30;1.75;;;;;;;22.93;62.18;92666.22;5036514;28;20091;-76
2022/07/29 08:18:37;;;;;;;4.93;1.65;;;;;;;22.79;62.91;92664.88;5054527;28;20148;-75
2022/07/29 08:21:03;;;;;;;4.28;1.60;;;;;;;22.68;63.27;92671.94;5054541;28;20029;-75
2022/07/29 08:23:38;;;;;;;3.35;1.70;;;;;;;22.50;63.05;92661.00;5020122;28;20086;-75
2022/07/29 08:26:05;;;;;;;3.78;1.70;;;;;;;22.47;64.44;92661.69;5054272;28;20067;-75
2022/07/29 08:28:30;;;;;;;3.28;1.67;;;;;;;22.51;65.09;92664.41;5036349;28;20021;-75
2022/07/29 08:30:56;;;;;;;4.70;1.90;;;;;;;22.72;66.05;92663.97;5054415;28;20045;-75
2022/07/29 08:33:22;;;;;;;3.40;2.00;;;;;;;22.40;67.19;92669.56;5054222;28;20044;-75
2022/07/29 08:35:47;;;;;;;3.15;1.60;;;;;;;22.32;68.21;92674.03;5054298;28;20021;-75
2022/07/29 08:38:13;;;;;;;5.13;1.73;;;;;;;22.02;67.72;92668.47;5022880;28;20049;-75
2022/07/29 08:40:39;;;;;;;3.50;1.60;;;;;;;22.15;68.24;92675.19;5016875;28;20048;-75
2022/07/29 08:43:06;;;;;;;3.83;1.77;;;;;;;22.41;68.61;92671.13;5016552;28;20022;-75
2022/07/29 08:45:43;;;;;;;3.80;1.90;;;;;;;22.58;65.32;92670.63;5034242;28;20274;-75
2022/07/29 08:48:08;;;;;;;2.72;1.75;;;;;;;22.75;65.77;92668.63;5025327;28;20087;-75
2022/07/29 08:50:36;;;;;;;5.05;2.05;;;;;;;22.77;66.22;92669.03;5054002;28;20028;-75
2022/07/29 08:53:03;;;;;;;3.30;1.90;;;;;;;22.89;65.69;92668.84;5053854;28;20135;-75
2022/07/29 08:55:29;;;;;;;4.22;1.88;;;;;;;23.11;64.12;92669.19;5019394;28;20040;-75
2022/07/29 08:57:55;;;;;;;3.03;1.67;;;;;;;23.38;63.27;92673.38;5053785;28;20442;-75
2022/07/29 09:00:22;;;;;;;4.90;2.13;;;;;;;23.74;64.07;92673.81;5054233;28;20660;-75
2022/07/29 09:02:54;;;;;;;2.85;1.80;;;;;;;24.27;60.87;92671.00;5036160;28;20549;-76
2022/07/29 09:05:20;;;;;;;2.80;1.80;;;;;;;23.66;62.56;92669.53;5019413;28;20514;-75
2022/07/29 09:07:47;;;;;;;4.05;1.88;;;;;;;23.52;62.41;92669.34;5019359;28;20140;-75
2022/07/29 09:10:13;;;;;;;3.75;1.92;;;;;;;23.13;63.54;92669.59;5018985;28;20044;-76
2022/07/29 09:12:39;;;;;;;4.30;1.90;;;;;;;22.96;66.33;92666.25;5053548;28;20044;-76
2022/07/29 09:15:05;;;;;;;4.25;1.85;;;;;;;22.98;65.34;92666.69;5053469;28;20037;-75
2022/07/29 09:17:49;;;;;;;3.60;2.10;;;;;;;23.25;63.69;92669.38;5035252;28;20128;-75
2022/07/29 09:20:21;;;;;;;3.88;1.80;;;;;;;23.62;59.90;92666.03;5020490;28;20513;-75
2022/07/29 09:22:52;;;;;;;2.95;1.80;;;;;;;24.10;57.06;92664.31;5033508;28;20038;-75
2022/07/29 09:25:37;;;;;;;5.00;1.93;;;;;;;23.85;57.83;92665.97;5033681;28;20033;-75
2022/07/29 09:28:11;;;;;;;4.53;2.08;;;;;;;23.77;57.08;92657.09;5033406;28;20033;-75
2022/07/29 09:30:58;;;;;;;3.55;2.10;;;;;;;23.72;58.75;92649.38;5029052;28;20068;-75
2022/07/29 09:33:31;;;;;;;4.13;2.20;;;;;;;23.74;57.91;92651.69;5035474;28;20518;-75
2022/07/29 09:36:04;;;;;;;3.95;1.98;;;;;;;23.87;59.94;92645.00;5035183;28;20127;-75
2022/07/29 09:38:30;;;;;;;2.80;1.80;;;;;;;24.04;60.43;92643.63;5052978;28;20052;-76
2022/07/29 09:40:57;;;;;;;5.10;2.22;;;;;;;23.98;57.35;92648.56;5022868;28;20022;-75
2022/07/29 09:43:23;;;;;;;4.97;1.85;;;;;;;23.88;58.98;92635.81;4999178;28;20033;-75
2022/07/29 09:45:48;;;;;;;4.45;2.13;;;;;;;23.98;59.13;92635.19;5032979;28;20044;-75
2022/07/29 09:48:24;;;;;;;3.85;2.33;;;;;;;24.05;58.37;92632.59;4998808;28;20479;-75
2022/07/29 09:50:52;;;;;;;3.17;1.90;;;;;;;23.96;57.80;92632.09;5021772;28;20376;-75
2022/07/29 09:53:35;;;;;;;3.22;2.05;;;;;;;24.00;55.78;92634.81;5052753;28;20435;-75
2022/07/29 09:56:01;;;;;;;5.47;2.20;;;;;;;24.02;58.32;92635.97;5052729;28;20036;-75
2022/07/29 09:58:27;;;;;;;4.55;1.90;;;;;;;23.97;56.91;92632.88;5034839;28;20036;-76
2022/07/29 10:00:54;;;;;;;3.50;2.20;;;;;;;24.15;56.21;92630.38;5015394;28;20488;-75
2022/07/29 10:03:21;;;;;;;6.05;2.00;;;;;;;24.17;56.64;92630.78;4982703;28;20045;-75
2022/07/29 10:06:06;;;;;;;3.50;2.10;;;;;;;24.50;55.36;92648.69;5032636;28;20419;-75
2022/07/29 10:08:31;;;;;;;4.93;2.03;;;;;;;24.90;53.97;92639.03;5032672;28;20112;-75
2022/07/29 10:11:16;;;;;;;5.18;2.10;;;;;;;24.92;52.00;92642.13;5014884;28;20598;-75
2022/07/29 10:13:44;;;;;;;8.73;2.00;;;;;;;25.01;53.39;92637.22;5039425;28;20406;-76
2022/07/29 10:16:10;;;;;;;3.55;2.00;;;;;;;24.60;52.16;92645.31;5030990;28;20056;-75
2022/07/29 10:18:38;;;;;;;3.13;1.85;;;;;;;24.70;52.67;92635.84;5014666;28;20076;-75
2022/07/29 10:21:04;;;;;;;4.35;1.90;;;;;;;24.56;53.01;92628.47;5014951;28;20037;-75
2022/07/29 10:23:31;;;;;;;4.75;2.00;;;;;;;24.52;53.17;92623.09;5016890;28;20037;-75
2022/07/29 10:25:57;;;;;;;3.30;2.00;;;;;;;24.29;52.73;92622.47;5015276;28;20575;-76
2022/07/29 10:28:24;;;;;;;3.67;1.98;;;;;;;24.31;53.92;92626.31;5016946;28;20037;-75
2022/07/29 10:30:52;;;;;;;3.38;1.95;;;;;;;24.24;53.59;92615.56;5052049;28;20463;-76
2022/07/29 10:34:02;;;;;;;4.03;2.40;;;;;;;24.37;54.14;92621.41;5034293;28;20045;-75
2022/07/29 10:36:44;;;;;;;3.53;2.13;;;;;;;24.42;54.90;92612.28;5014235;28;20467;-76
2022/07/29 10:39:41;;;;;;;6.80;2.40;;;;;;;24.60;53.21;92610.53;5014387;28;20045;-75
2022/07/29 10:42:25;;;;;;;2.90;1.83;;;;;;;24.58;54.34;92610.13;5032019;28;20033;-76
2022/07/29 10:44:53;;;;;;;4.65;2.30;;;;;;;24.84;55.27;92598.47;5014335;28;20355;-76
2022/07/29 10:47:26;;;;;;;3.53;2.28;;;;;;;25.05;51.49;92607.78;5031972;28;20037;-75
2022/07/29 10:50:03;;;;;;;3.95;2.20;;;;;;;25.06;52.27;92610.09;5014126;28;20041;-76
2022/07/29 10:52:56;;;;;;;5.97;2.40;;;;;;;24.84;53.25;92609.19;4997730;28;20464;-75
2022/07/29 10:55:44;;;;;;;4.28;2.15;;;;;;;24.45;55.60;92603.50;5032036;28;20483;-75
2022/07/29 10:58:22;;;;;;;6.40;2.40;;;;;;;24.15;54.65;92601.72;5031650;28;20436;-76
2022/07/29 11:00:52;;;;;;;3.90;2.00;;;;;;;23.89;56.67;92595.38;5031699;28;20073;-75
2022/07/29 11:03:43;;;;;;;4.40;2.22;;;;;;;24.17;55.45;92598.69;4997576;28;20499;-76
2022/07/29 11:06:09;;;;;;;3.70;2.30;;;;;;;24.18;55.51;92600.22;5030645;28;20017;-75
2022/07/29 11:08:34;;;;;;;6.30;2.30;;;;;;;24.47;55.00;92603.91;5031563;28;20032;-75
2022/07/29 11:11:18;;;;;;;6.35;2.47;;;;;;;24.72;54.95;92601.44;5013949;28;20041;-76
2022/07/29 11:13:46;;;;;;;4.28;2.42;;;;;;;25.11;51.63;92604.38;5014137;28;20293;-75
2022/07/29 11:16:12;;;;;;;4.32;2.55;;;;;;;25.22;52.15;92599.13;5031351;28;20095;-76
2022/07/29 11:19:12;;;;;;;5.28;2.60;;;;;;;25.22;52.57;92595.66;5013777;28;20069;-76
2022/07/29 11:21:49;;;;;;;7.45;2.78;;;;;;;25.24;52.08;92601.41;5013732;28;20176;-75
2022/07/29 11:24:27;;;;;;;4.38;2.53;;;;;;;25.16;51.61;92597.13;4997234;28;20415;-76
2022/07/29 11:27:16;;;;;;;6.22;2.90;;;;;;;25.08;51.90;92602.47;5031372;28;20519;-76
2022/07/29 11:29:53;;;;;;;4.10;2.47;;;;;;;24.97;53.17;92606.19;5013429;28;20446;-75
2022/07/29 11:32:21;;;;;;;4.68;2.53;;;;;;;24.82;54.08;92608.03;5031090;28;20064;-75
2022/07/29 11:34:48;;;;;;;5.03;2.58;;;;;;;24.81;55.34;92609.16;5031206;28;20041;-76
2022/07/29 11:37:15;;;;;;;4.45;2.70;;;;;;;24.88;55.98;92598.50;5031039;28;20140;-76
2022/07/29 11:40:04;;;;;;;7.05;2.72;;;;;;;25.03;52.76;92610.81;5030773;28;20040;-76
2022/07/29 11:42:35;;;;;;;4.28;2.83;;;;;;;24.92;54.97;92602.72;5001478;28;20469;-75
2022/07/29 11:45:05;;;;;;;5.72;2.58;;;;;;;24.95;55.34;92606.59;5030778;28;20029;-76
2022/07/29 11:47:32;;;;;;;5.05;2.65;;;;;;;24.96;54.04;92612.72;5031037;28;20096;-76